createdAt,value
2023-01-07T00:00:48.466Z,8.95
2023-01-07T00:01:52.065Z,9.23
2023-01-07T00:02:56.402Z,8.68
2023-01-07T00:04:00.539Z,8.57
2023-01-07T00:05:03.503Z,9.27
2023-01-07T00:06:09.264Z,9.60
2023-01-07T00:07:13.037Z,9.48
2023-01-07T00:08:16.143Z,9.93
2023-01-07T00:09:18.905Z,10.10
2023-01-07T00:10:22.010Z,9.65
2023-01-07T00:11:28.380Z,10.48
2023-01-07T00:12:32.284Z,9.80
2023-01-07T00:13:36.501Z,9.60
2023-01-07T00:14:39.859Z,9.60
2023-01-07T00:15:42.556Z,9.90
2023-01-07T00:16:45.848Z,8.93
2023-01-07T00:17:48.832Z,9.52
2023-01-07T00:18:53.906Z,9.65
2023-01-07T00:19:56.846Z,9.95
2023-01-07T00:21:01.771Z,10.32
2023-01-07T00:22:04.437Z,9.25
2023-01-07T00:23:08.178Z,10.73
2023-01-07T00:24:12.251Z,9.45
2023-01-07T00:25:15.009Z,9.75
2023-01-07T00:26:20.482Z,9.33
2023-01-07T00:27:23.883Z,9.50
2023-01-07T00:28:27.501Z,10.30
2023-01-07T00:29:30.237Z,9.25
2023-01-07T00:30:33.401Z,9.30
2023-01-07T00:31:39.048Z,10.13
2023-01-07T00:32:59.866Z,9.93
2023-01-07T00:34:02.918Z,10.15
2023-01-07T00:35:21.514Z,9.52
2023-01-07T00:36:26.388Z,9.38
2023-01-07T00:37:47.752Z,10.00
2023-01-07T00:38:58.471Z,9.97
2023-01-07T00:40:01.456Z,9.82
2023-01-07T00:41:05.344Z,10.10
2023-01-07T00:42:26.532Z,10.68
2023-01-07T00:43:29.277Z,10.00
2023-01-07T00:44:32.750Z,9.35
2023-01-07T00:45:37.157Z,9.90
2023-01-07T00:46:39.896Z,9.32
2023-01-07T00:47:42.631Z,9.93
2023-01-07T00:48:45.971Z,9.43
2023-01-07T00:49:48.702Z,10.67
2023-01-07T00:50:53.306Z,9.82
2023-01-07T00:51:56.596Z,10.20
2023-01-07T00:53:00.363Z,10.52
2023-01-07T00:54:03.125Z,10.40
2023-01-07T00:55:06.561Z,9.48
2023-01-07T00:56:11.362Z,10.10
2023-01-07T00:57:14.187Z,9.93
2023-01-07T00:58:21.916Z,10.38
2023-01-07T00:59:25.369Z,9.93
2023-01-07T01:00:28.218Z,9.93
2023-01-07T01:01:31.721Z,10.10
2023-01-07T01:02:35.020Z,10.48
2023-01-07T01:03:39.033Z,9.75
2023-01-07T01:04:41.842Z,10.30
2023-01-07T01:05:45.012Z,10.00
2023-01-07T01:06:47.977Z,10.60
2023-01-07T01:07:50.724Z,10.25
2023-01-07T01:08:53.570Z,10.00
2023-01-07T01:09:56.342Z,10.33
2023-01-07T01:11:06.642Z,9.70
2023-01-07T01:12:09.725Z,10.38
2023-01-07T01:13:18.187Z,9.75
2023-01-07T01:14:21.143Z,10.02
2023-01-07T01:15:24.159Z,10.25
2023-01-07T01:16:27.402Z,10.20
2023-01-07T01:17:30.735Z,10.40
2023-01-07T01:18:34.086Z,10.10
2023-01-07T01:19:37.467Z,11.27
2023-01-07T01:20:40.676Z,10.27
2023-01-07T01:21:43.499Z,10.57
2023-01-07T01:22:47.148Z,9.68
2023-01-07T01:23:49.810Z,10.65
2023-01-07T01:24:53.441Z,9.63
2023-01-07T01:26:07.194Z,10.68
2023-01-07T01:27:09.850Z,10.02
2023-01-07T01:28:17.364Z,10.88
2023-01-07T01:29:20.590Z,11.82
2023-01-07T01:30:23.732Z,10.35
2023-01-07T01:31:26.537Z,11.10
2023-01-07T01:32:30.178Z,10.57
2023-01-07T01:33:33.317Z,9.90
2023-01-07T01:34:36.377Z,10.10
2023-01-07T01:35:42.290Z,10.23
2023-01-07T01:36:45.193Z,9.80
2023-01-07T01:37:48.313Z,10.93
2023-01-07T01:38:51.530Z,11.32
2023-01-07T01:39:54.541Z,12.15
2023-01-07T01:40:57.597Z,11.10
2023-01-07T01:42:00.514Z,11.40
2023-01-07T01:43:03.353Z,10.30
2023-01-07T01:44:45.955Z,9.82
2023-01-07T01:45:48.994Z,9.93
2023-01-07T01:46:52.281Z,9.93
2023-01-07T01:48:04.093Z,9.73
2023-01-07T01:49:07.026Z,10.20
2023-01-07T01:50:22.094Z,10.60
2023-01-07T01:51:28.530Z,10.05
2023-01-07T01:52:48.820Z,10.30
2023-01-07T01:53:53.558Z,10.10
2023-01-07T01:55:00.661Z,9.97
2023-01-07T01:56:14.450Z,10.40
2023-01-07T01:57:19.050Z,10.75
2023-01-07T01:58:30.110Z,10.75
2023-01-07T01:59:38.081Z,11.25
2023-01-07T02:00:42.833Z,11.05
2023-01-07T02:01:47.191Z,11.05
2023-01-07T02:02:57.106Z,10.95
2023-01-07T02:04:01.600Z,11.12
2023-01-07T02:05:05.213Z,10.30
2023-01-07T02:06:15.511Z,11.07
2023-01-07T02:07:19.143Z,9.80
2023-01-07T02:08:23.471Z,9.95
2023-01-07T02:09:27.061Z,11.00
2023-01-07T02:10:31.876Z,11.52
2023-01-07T02:11:56.629Z,10.50
2023-01-07T02:13:50.199Z,11.57
2023-01-07T02:15:22.359Z,10.88
2023-01-07T02:16:43.366Z,11.20
2023-01-07T02:18:07.717Z,10.27
2023-01-07T02:19:31.141Z,11.00
2023-01-07T02:20:47.353Z,11.55
2023-01-07T02:22:34.684Z,11.90
2023-01-07T02:23:46.522Z,12.52
2023-01-07T02:25:22.461Z,12.15
2023-01-07T02:26:50.320Z,13.00
2023-01-07T02:28:23.268Z,13.38
2023-01-07T02:29:54.597Z,13.85
2023-01-07T02:31:28.170Z,13.80
2023-01-07T02:33:04.381Z,12.70
2023-01-07T02:34:43.664Z,13.25
2023-01-07T02:35:58.486Z,14.48
2023-01-07T02:37:11.862Z,14.13
2023-01-07T02:38:48.721Z,14.82
2023-01-07T02:40:00.332Z,14.70
2023-01-07T02:41:29.127Z,14.60
2023-01-07T02:42:51.927Z,16.30
2023-01-07T02:44:09.813Z,16.60
2023-01-07T02:45:29.330Z,16.83
2023-01-07T02:51:07.676Z,13.85
2023-01-07T02:52:22.660Z,13.68
2023-01-07T02:53:25.654Z,13.23
2023-01-07T02:54:30.021Z,13.50
2023-01-07T02:55:55.605Z,13.75
2023-01-07T02:57:17.475Z,13.27
2023-01-07T02:58:35.899Z,12.90
2023-01-07T02:59:54.351Z,13.10
2023-01-07T03:01:04.392Z,13.50
2023-01-07T03:02:26.197Z,12.52
2023-01-07T03:03:56.151Z,12.65
2023-01-07T03:05:10.658Z,13.27
2023-01-07T03:06:51.958Z,14.20
2023-01-07T03:07:57.949Z,12.63
2023-01-07T03:09:19.986Z,12.73
2023-01-07T03:10:45.710Z,13.85
2023-01-07T03:12:06.964Z,12.48
2023-01-07T03:13:18.037Z,13.50
2023-01-07T03:14:26.662Z,13.93
2023-01-07T03:15:40.307Z,13.20
2023-01-07T03:16:57.926Z,14.00
2023-01-07T03:18:31.090Z,13.62
2023-01-07T03:19:39.993Z,14.85
2023-01-07T03:20:46.979Z,14.30
2023-01-07T03:21:51.689Z,14.27
2023-01-07T03:22:58.355Z,14.65
2023-01-07T03:24:02.390Z,14.82
2023-01-07T03:25:07.599Z,14.40
2023-01-07T03:26:12.661Z,14.90
2023-01-07T03:27:18.279Z,14.68
2023-01-07T03:28:27.933Z,15.38
2023-01-07T03:29:35.852Z,14.35
2023-01-07T03:30:39.403Z,14.80
2023-01-07T03:31:58.352Z,13.85
2023-01-07T03:33:08.227Z,14.43
2023-01-07T03:34:16.485Z,13.15
2023-01-07T03:35:22.743Z,14.02
2023-01-07T03:36:31.009Z,13.90
2023-01-07T03:37:34.689Z,14.27
2023-01-07T03:38:39.816Z,13.35
2023-01-07T03:39:45.287Z,13.88
2023-01-07T03:40:48.322Z,14.95
2023-01-07T03:42:11.056Z,15.52
2023-01-07T03:43:17.757Z,15.07
2023-01-07T03:44:20.567Z,18.10
2023-01-07T03:45:25.633Z,16.15
2023-01-07T03:46:29.266Z,18.95
2023-01-07T03:47:33.726Z,21.17
2023-01-07T03:48:36.769Z,19.48
2023-01-07T03:49:40.017Z,19.12
2023-01-07T03:50:43.373Z,19.95
2023-01-07T03:51:49.522Z,20.15
2023-01-07T03:52:53.344Z,20.27
2023-01-07T03:53:56.316Z,20.27
2023-01-07T03:54:59.262Z,20.52
2023-01-07T03:56:02.215Z,21.98
2023-01-07T03:57:05.325Z,21.67
2023-01-07T03:58:08.988Z,21.43
2023-01-07T03:59:12.465Z,21.15
2023-01-07T04:00:15.446Z,19.15
2023-01-07T04:01:19.449Z,16.90
2023-01-07T04:02:22.379Z,15.38
2023-01-07T04:03:25.501Z,16.33
2023-01-07T04:04:28.559Z,14.07
2023-01-07T04:05:31.369Z,14.52
2023-01-07T04:06:35.080Z,14.18
2023-01-07T04:07:38.249Z,16.10
2023-01-07T04:08:41.790Z,17.10
2023-01-07T04:09:47.285Z,15.70
2023-01-07T04:10:50.101Z,16.55
2023-01-07T04:11:53.446Z,23.05
2023-01-07T04:12:56.942Z,22.02
2023-01-07T04:14:00.911Z,17.42
2023-01-07T04:15:04.939Z,15.05
2023-01-07T04:16:08.159Z,14.02
2023-01-07T04:17:12.037Z,16.15
2023-01-07T04:18:14.781Z,15.20
2023-01-07T04:19:18.321Z,15.03
2023-01-07T04:20:22.077Z,14.60
2023-01-07T04:21:24.879Z,13.77
2023-01-07T04:22:28.268Z,14.65
2023-01-07T04:23:31.420Z,13.40
2023-01-07T04:24:34.533Z,13.35
2023-01-07T04:25:37.239Z,12.80
2023-01-07T04:26:41.217Z,13.35
2023-01-07T04:27:44.425Z,12.63
2023-01-07T04:28:47.174Z,12.90
2023-01-07T04:29:50.400Z,12.33
2023-01-07T04:30:53.301Z,15.43
2023-01-07T04:31:56.500Z,18.55
2023-01-07T04:33:00.471Z,18.33
2023-01-07T04:34:03.238Z,16.42
2023-01-07T04:35:07.426Z,15.20
2023-01-07T04:36:11.625Z,16.65
2023-01-07T04:37:14.883Z,17.65
2023-01-07T04:38:18.385Z,16.90
2023-01-07T04:39:21.118Z,16.40
2023-01-07T04:40:24.183Z,14.57
2023-01-07T04:41:27.730Z,12.25
2023-01-07T04:42:30.430Z,12.07
2023-01-07T04:43:33.878Z,12.25
2023-01-07T04:44:36.548Z,12.15
2023-01-07T04:45:39.294Z,12.57
2023-01-07T04:46:42.310Z,12.13
2023-01-07T04:47:45.218Z,11.80
2023-01-07T04:48:48.484Z,11.88
2023-01-07T04:49:51.876Z,11.20
2023-01-07T04:50:54.828Z,11.37
2023-01-07T04:51:58.114Z,11.60
2023-01-07T04:53:00.973Z,11.77
2023-01-07T04:54:04.760Z,12.77
2023-01-07T04:55:08.476Z,11.70
2023-01-07T04:56:12.187Z,12.50
2023-01-07T04:57:15.023Z,12.80
2023-01-07T04:58:19.933Z,12.73
2023-01-07T04:59:23.424Z,15.05
2023-01-07T05:00:26.237Z,14.75
2023-01-07T05:01:31.238Z,12.57
2023-01-07T05:02:34.843Z,12.02
2023-01-07T05:03:37.876Z,10.55
2023-01-07T05:04:41.124Z,11.23
2023-01-07T05:05:44.032Z,10.85
2023-01-07T05:06:47.104Z,11.45
2023-01-07T05:07:49.822Z,12.27
2023-01-07T05:08:54.192Z,12.20
2023-01-07T05:09:57.182Z,12.10
2023-01-07T05:11:00.408Z,12.02
2023-01-07T05:12:03.455Z,19.10
2023-01-07T05:13:07.171Z,39.40
2023-01-07T05:14:12.178Z,16.65
2023-01-07T05:15:15.705Z,14.43
2023-01-07T05:16:18.568Z,15.27
2023-01-07T05:17:21.975Z,12.30
2023-01-07T05:18:24.824Z,14.65
2023-01-07T05:19:27.809Z,23.83
2023-01-07T05:20:31.127Z,28.83
2023-01-07T05:21:34.000Z,26.87
2023-01-07T05:22:37.119Z,21.27
2023-01-07T05:23:40.064Z,14.38
2023-01-07T05:24:43.044Z,12.02
2023-01-07T05:25:46.592Z,12.80
2023-01-07T05:26:49.840Z,23.83
2023-01-07T05:27:52.810Z,33.83
2023-01-07T05:28:57.345Z,27.15
2023-01-07T05:30:00.328Z,20.10
2023-01-07T05:31:03.703Z,18.48
2023-01-07T05:32:06.676Z,26.80
2023-01-07T05:33:09.740Z,19.47
2023-01-07T05:34:12.542Z,11.55
2023-01-07T05:35:15.584Z,16.23
2023-01-07T05:36:18.865Z,15.25
2023-01-07T05:37:21.627Z,16.20
2023-01-07T05:38:24.770Z,11.20
2023-01-07T05:39:28.124Z,10.50
2023-01-07T05:40:30.988Z,10.68
2023-01-07T05:41:34.005Z,10.73
2023-01-07T05:42:36.836Z,10.85
2023-01-07T05:43:39.703Z,11.33
2023-01-07T05:44:42.676Z,11.85
2023-01-07T05:45:46.609Z,11.48
2023-01-07T05:46:49.692Z,12.37
2023-01-07T05:47:52.429Z,12.00
2023-01-07T05:48:55.242Z,12.15
2023-01-07T05:49:57.932Z,10.85
2023-01-07T05:51:00.681Z,12.85
2023-01-07T05:52:03.856Z,13.57
2023-01-07T05:53:06.542Z,22.23
2023-01-07T05:54:09.423Z,20.77
2023-01-07T05:55:12.399Z,31.60
2023-01-07T05:56:15.120Z,29.90
2023-01-07T05:57:18.105Z,25.83
2023-01-07T05:58:20.819Z,22.80
2023-01-07T05:59:23.561Z,23.85
2023-01-07T06:00:26.418Z,21.33
2023-01-07T06:01:29.609Z,20.55
2023-01-07T06:02:32.903Z,26.70
2023-01-07T06:03:36.366Z,21.55
2023-01-07T06:04:39.110Z,18.63
2023-01-07T06:05:44.645Z,14.48
2023-01-07T06:06:47.796Z,12.45
2023-01-07T06:07:51.110Z,12.00
2023-01-07T06:08:54.050Z,13.77
2023-01-07T06:09:56.872Z,17.70
2023-01-07T06:11:00.237Z,27.75
2023-01-07T06:12:03.542Z,32.50
2023-01-07T06:13:06.705Z,29.35
2023-01-07T06:14:10.115Z,27.00
2023-01-07T06:15:14.180Z,24.47
2023-01-07T06:16:20.497Z,23.00
2023-01-07T06:17:23.795Z,18.77
2023-01-07T06:18:26.886Z,18.50
2023-01-07T06:19:30.836Z,17.58
2023-01-07T06:20:36.570Z,14.15
2023-01-07T06:21:39.507Z,15.63
2023-01-07T06:22:43.516Z,14.77
2023-01-07T06:23:46.859Z,13.88
2023-01-07T06:24:53.731Z,15.35
2023-01-07T06:25:56.639Z,15.83
2023-01-07T06:26:59.819Z,16.92
2023-01-07T06:28:03.194Z,20.55
2023-01-07T06:29:07.412Z,19.50
2023-01-07T06:30:11.775Z,16.35
2023-01-07T06:31:14.693Z,17.15
2023-01-07T06:32:17.600Z,16.00
2023-01-07T06:33:21.602Z,18.35
2023-01-07T06:34:24.429Z,17.70
2023-01-07T06:35:27.959Z,18.15
2023-01-07T06:36:31.175Z,22.60
2023-01-07T06:37:34.790Z,21.42
2023-01-07T06:38:38.495Z,21.92
2023-01-07T06:39:41.816Z,24.10
2023-01-07T06:40:44.829Z,17.30
2023-01-07T06:41:48.302Z,17.80
2023-01-07T06:42:51.474Z,21.83
2023-01-07T06:43:54.444Z,29.45
2023-01-07T06:44:57.576Z,26.45
2023-01-07T06:46:01.065Z,31.90
2023-01-07T06:47:04.198Z,16.97
2023-01-07T06:48:06.980Z,17.40
2023-01-07T06:49:10.589Z,25.52
2023-01-07T06:50:14.077Z,29.33
2023-01-07T06:51:16.920Z,18.65
2023-01-07T06:52:20.196Z,16.58
2023-01-07T06:53:23.688Z,17.15
2023-01-07T06:54:26.846Z,15.80
2023-01-07T06:55:29.722Z,17.20
2023-01-07T06:56:32.818Z,16.80
2023-01-07T06:57:37.058Z,15.80
2023-01-07T06:58:40.110Z,15.75
2023-01-07T06:59:43.224Z,17.10
2023-01-07T07:00:46.576Z,16.90
2023-01-07T07:01:49.854Z,18.10
2023-01-07T07:02:52.938Z,16.48
2023-01-07T07:03:56.334Z,15.48
2023-01-07T07:04:59.737Z,16.33
2023-01-07T07:06:02.644Z,25.23
2023-01-07T07:07:05.727Z,28.05
2023-01-07T07:08:08.806Z,35.67
2023-01-07T07:09:12.147Z,18.25
2023-01-07T07:10:15.438Z,19.70
2023-01-07T07:11:18.586Z,20.37
2023-01-07T07:12:21.673Z,27.27
2023-01-07T07:13:24.980Z,37.75
2023-01-07T07:14:28.068Z,24.15
2023-01-07T07:15:31.772Z,18.35
2023-01-07T07:16:35.772Z,17.10
2023-01-07T07:17:39.231Z,18.83
2023-01-07T07:18:42.731Z,18.50
2023-01-07T07:19:46.714Z,20.37
2023-01-07T07:20:50.494Z,17.98
2023-01-07T07:21:54.065Z,15.75
2023-01-07T07:22:57.353Z,20.92
2023-01-07T07:24:00.878Z,23.90
2023-01-07T07:25:04.638Z,19.95
2023-01-07T07:26:08.048Z,23.83
2023-01-07T07:27:11.229Z,19.27
2023-01-07T07:28:14.728Z,40.70
2023-01-07T07:29:17.980Z,37.97
2023-01-07T07:30:20.949Z,29.77
2023-01-07T07:31:24.503Z,17.37
2023-01-07T07:32:28.660Z,18.27
2023-01-07T07:33:31.461Z,16.58
2023-01-07T07:34:35.828Z,16.17
2023-01-07T07:35:38.680Z,16.37
2023-01-07T07:36:41.813Z,19.45
2023-01-07T07:37:44.490Z,15.95
2023-01-07T07:38:47.228Z,18.27
2023-01-07T07:39:50.087Z,24.73
2023-01-07T07:40:52.821Z,18.70
2023-01-07T07:41:55.804Z,17.85
2023-01-07T07:43:10.781Z,19.92
2023-01-07T07:44:15.360Z,16.60
2023-01-07T07:45:19.850Z,22.33
2023-01-07T07:46:22.741Z,32.47
2023-01-07T07:47:25.805Z,23.73
2023-01-07T07:48:28.988Z,19.23
2023-01-07T07:49:31.827Z,17.70
2023-01-07T07:50:36.010Z,22.90
2023-01-07T07:51:38.852Z,21.75
2023-01-07T07:52:41.917Z,21.90
2023-01-07T07:53:44.625Z,16.77
2023-01-07T07:54:47.662Z,15.75
2023-01-07T07:55:51.099Z,15.27
2023-01-07T07:56:54.799Z,14.95
2023-01-07T07:57:58.843Z,16.17
2023-01-07T07:59:01.837Z,30.92
2023-01-07T08:00:07.648Z,24.58
2023-01-07T08:01:15.038Z,32.83
2023-01-07T08:02:19.613Z,29.33
2023-01-07T08:03:24.219Z,19.52
2023-01-07T08:04:34.335Z,18.60
2023-01-07T08:05:42.408Z,18.70
2023-01-07T08:06:45.414Z,15.55
2023-01-07T08:07:48.799Z,15.07
2023-01-07T08:08:51.914Z,15.95
2023-01-07T08:09:55.302Z,18.02
2023-01-07T08:10:58.419Z,16.67
2023-01-07T08:12:01.433Z,15.47
2023-01-07T08:13:05.531Z,19.33
2023-01-07T08:14:10.326Z,16.60
2023-01-07T08:15:13.373Z,16.02
2023-01-07T08:16:16.267Z,16.70
2023-01-07T08:17:19.327Z,14.75
2023-01-07T08:18:24.029Z,27.92
2023-01-07T08:19:27.491Z,29.98
2023-01-07T08:20:32.039Z,19.70
2023-01-07T08:21:35.568Z,16.85
2023-01-07T08:22:38.720Z,17.63
2023-01-07T08:23:42.502Z,15.73
2023-01-07T08:24:45.751Z,24.90
2023-01-07T08:25:48.819Z,16.85
2023-01-07T08:26:55.624Z,17.58
2023-01-07T08:27:59.598Z,16.35
2023-01-07T08:29:03.368Z,14.07
2023-01-07T08:30:06.562Z,15.02
2023-01-07T08:31:09.938Z,15.15
2023-01-07T08:32:13.102Z,17.15
2023-01-07T08:33:16.149Z,17.57
2023-01-07T08:34:19.571Z,19.23
2023-01-07T08:35:23.545Z,38.28
2023-01-07T08:36:27.095Z,18.10
2023-01-07T08:37:31.644Z,18.90
2023-01-07T08:38:35.303Z,17.85
2023-01-07T08:39:39.172Z,22.10
2023-01-07T08:40:42.632Z,16.45
2023-01-07T08:41:45.892Z,17.50
2023-01-07T08:42:49.386Z,14.45
2023-01-07T08:43:53.551Z,14.13
2023-01-07T08:44:57.297Z,14.20
2023-01-07T08:46:00.349Z,14.57
2023-01-07T08:47:03.521Z,15.07
2023-01-07T08:48:07.076Z,15.23
2023-01-07T08:49:11.442Z,15.73
2023-01-07T08:50:15.021Z,15.90
2023-01-07T08:51:17.973Z,16.62
2023-01-07T08:52:22.335Z,18.52
2023-01-07T08:53:26.067Z,21.42
2023-01-07T08:54:29.360Z,19.67
2023-01-07T08:55:32.861Z,23.40
2023-01-07T08:56:35.991Z,23.87
2023-01-07T08:57:39.050Z,18.67
2023-01-07T08:58:42.012Z,19.98
2023-01-07T08:59:45.339Z,17.90
2023-01-07T09:00:48.867Z,18.33
2023-01-07T09:01:52.328Z,18.67
2023-01-07T09:02:55.627Z,15.32
2023-01-07T09:03:58.837Z,14.85
2023-01-07T09:05:02.161Z,15.10
2023-01-07T09:06:07.245Z,14.10
2023-01-07T09:07:11.637Z,15.85
2023-01-07T09:08:15.094Z,14.50
2023-01-07T09:09:18.638Z,14.10
2023-01-07T09:10:22.083Z,15.77
2023-01-07T09:11:25.757Z,24.83
2023-01-07T09:12:29.353Z,30.85
2023-01-07T09:13:32.722Z,32.20
2023-01-07T09:14:36.035Z,28.85
2023-01-07T09:15:39.374Z,24.60
2023-01-07T09:16:43.588Z,23.90
2023-01-07T09:17:47.396Z,22.15
2023-01-07T09:18:50.976Z,22.98
2023-01-07T09:19:54.356Z,16.90
2023-01-07T09:20:57.931Z,16.23
2023-01-07T09:22:01.395Z,16.05
2023-01-07T09:23:04.155Z,18.15
2023-01-07T09:24:07.624Z,22.80
2023-01-07T09:25:10.613Z,23.80
2023-01-07T09:26:13.389Z,19.17
2023-01-07T09:27:17.443Z,25.13
2023-01-07T09:28:20.156Z,28.20
2023-01-07T09:29:23.016Z,24.70
2023-01-07T09:30:25.846Z,26.48
2023-01-07T09:31:28.611Z,22.37
2023-01-07T09:32:31.638Z,22.52
2023-01-07T09:33:34.387Z,20.70
2023-01-07T09:34:38.559Z,19.90
2023-01-07T09:35:41.856Z,22.15
2023-01-07T09:36:44.540Z,20.47
2023-01-07T09:37:48.469Z,29.63
2023-01-07T09:38:51.666Z,16.90
2023-01-07T09:39:54.724Z,14.40
2023-01-07T09:40:58.058Z,15.07
2023-01-07T09:42:26.014Z,14.73
2023-01-07T09:43:59.319Z,14.45
2023-01-07T09:45:16.437Z,15.88
2023-01-07T09:46:19.425Z,16.12
2023-01-07T09:47:26.815Z,16.55
2023-01-07T09:48:43.647Z,22.03
2023-01-07T09:49:51.159Z,21.63
2023-01-07T09:51:18.298Z,23.38
2023-01-07T09:52:30.783Z,28.05
2023-01-07T09:53:46.348Z,21.87
2023-01-07T09:54:53.798Z,21.98
2023-01-07T09:56:11.106Z,20.70
2023-01-07T09:57:18.095Z,17.77
2023-01-07T09:58:24.806Z,17.67
2023-01-07T09:59:28.307Z,18.45
2023-01-07T10:00:35.082Z,26.47
2023-01-07T10:02:02.413Z,23.27
2023-01-07T10:03:23.485Z,20.85
2023-01-07T10:04:45.241Z,23.80
2023-01-07T10:05:54.821Z,22.58
2023-01-07T10:07:34.659Z,23.10
2023-01-07T10:09:01.407Z,20.58
2023-01-07T10:10:18.217Z,16.70
2023-01-07T10:11:45.403Z,16.33
2023-01-07T10:13:09.693Z,16.62
2023-01-07T10:14:28.981Z,15.43
2023-01-07T10:15:43.555Z,16.17
2023-01-07T10:16:49.012Z,19.17
2023-01-07T10:18:06.874Z,38.83
2023-01-07T10:20:08.542Z,16.75
2023-01-07T10:21:25.492Z,16.50
2023-01-07T10:22:36.543Z,18.87
2023-01-07T10:23:43.965Z,18.58
2023-01-07T10:24:50.909Z,15.48
2023-01-07T10:25:57.127Z,14.18
2023-01-07T10:27:07.837Z,15.13
2023-01-07T10:28:19.964Z,15.67
2023-01-07T10:29:28.371Z,16.90
2023-01-07T10:30:40.967Z,21.23
2023-01-07T10:31:46.955Z,22.30
2023-01-07T10:32:59.175Z,25.27
2023-01-07T10:34:03.304Z,25.83
2023-01-07T10:35:17.022Z,23.00
2023-01-07T10:36:22.369Z,20.58
2023-01-07T10:37:34.267Z,21.65
2023-01-07T10:38:43.033Z,22.40
2023-01-07T10:40:08.571Z,55.20
2023-01-07T10:41:30.167Z,24.70
2023-01-07T10:42:37.466Z,18.65
2023-01-07T10:43:51.013Z,18.45
2023-01-07T10:45:17.919Z,16.90
2023-01-07T10:46:23.756Z,16.58
2023-01-07T10:47:38.710Z,18.33
2023-01-07T10:48:58.976Z,17.27
2023-01-07T10:50:42.314Z,19.50
2023-01-07T10:51:58.294Z,17.40
2023-01-07T10:53:29.473Z,21.03
2023-01-07T10:55:10.535Z,19.05
2023-01-07T10:56:15.838Z,17.40
2023-01-07T10:57:24.575Z,21.40
2023-01-07T10:58:39.541Z,18.85
2023-01-07T10:59:51.355Z,17.90
2023-01-07T11:00:54.371Z,19.12
2023-01-07T11:01:59.448Z,23.55
2023-01-07T11:03:02.883Z,21.52
2023-01-07T11:04:16.459Z,21.70
2023-01-07T11:05:21.366Z,18.77
2023-01-07T11:06:36.386Z,20.00
2023-01-07T11:07:51.858Z,20.62
2023-01-07T11:08:55.045Z,19.95
2023-01-07T11:10:04.377Z,20.52
2023-01-07T11:11:14.459Z,22.35
2023-01-07T11:12:38.812Z,18.33
2023-01-07T11:13:44.341Z,17.75
2023-01-07T11:14:50.697Z,20.08
2023-01-07T11:15:58.041Z,22.63
2023-01-07T11:17:18.311Z,20.03
2023-01-07T11:18:26.898Z,19.20
2023-01-07T11:19:51.755Z,17.40
2023-01-07T11:20:57.580Z,25.92
2023-01-07T11:22:07.344Z,26.10
2023-01-07T11:23:48.533Z,28.23
2023-01-07T11:24:56.634Z,22.35
2023-01-07T11:26:11.320Z,18.85
2023-01-07T11:27:23.452Z,24.23
2023-01-07T11:28:28.986Z,23.57
2023-01-07T11:29:56.757Z,21.77
2023-01-07T11:31:01.466Z,20.90
2023-01-07T11:32:06.151Z,37.53
2023-01-07T11:34:04.156Z,24.33
2023-01-07T11:34:59.688Z,28.33
2023-01-07T11:36:07.288Z,28.15
2023-01-07T11:37:11.244Z,27.55
2023-01-07T11:38:32.529Z,22.52
2023-01-07T11:39:36.376Z,24.08
2023-01-07T11:40:39.236Z,25.97
2023-01-07T11:41:52.865Z,25.50
2023-01-07T11:42:55.670Z,24.48
2023-01-07T11:43:59.879Z,21.98
2023-01-07T11:46:21.360Z,20.92
2023-01-07T11:47:16.778Z,19.83
2023-01-07T11:48:36.098Z,21.12
2023-01-07T11:49:44.969Z,21.62
2023-01-07T11:50:53.536Z,18.75
2023-01-07T11:51:57.499Z,20.55
2023-01-07T11:53:21.519Z,19.03
2023-01-07T11:54:29.502Z,20.43
2023-01-07T11:55:32.241Z,21.98
2023-01-07T11:56:35.274Z,21.12
2023-01-07T11:57:37.951Z,21.73
2023-01-07T11:58:48.809Z,19.87
2023-01-07T12:00:17.594Z,21.40
2023-01-07T12:01:24.252Z,23.80
2023-01-07T12:02:27.627Z,20.52
2023-01-07T12:03:30.860Z,19.62
2023-01-07T12:04:36.146Z,21.60
2023-01-07T12:05:40.968Z,21.93
2023-01-07T12:06:46.365Z,20.33
2023-01-07T12:07:51.495Z,18.87
2023-01-07T12:08:56.211Z,19.35
2023-01-07T12:09:59.049Z,20.10
2023-01-07T12:11:09.223Z,20.35
2023-01-07T12:12:35.138Z,19.45
2023-01-07T12:13:42.204Z,17.17
2023-01-07T12:14:58.706Z,19.27
2023-01-07T12:16:08.038Z,19.27
2023-01-07T12:17:22.180Z,19.43
2023-01-07T12:18:33.599Z,18.75
2023-01-07T12:19:58.949Z,18.30
2023-01-07T12:21:32.417Z,20.05
2023-01-07T12:22:45.348Z,17.80
2023-01-07T12:24:32.956Z,17.73
2023-01-07T12:26:18.291Z,19.92
2023-01-07T12:27:40.219Z,18.45
2023-01-07T12:28:57.529Z,21.15
2023-01-07T12:30:42.050Z,21.13
2023-01-07T12:31:46.559Z,22.80
2023-01-07T12:33:13.994Z,21.80
2023-01-07T12:34:28.647Z,23.08
2023-01-07T12:35:38.766Z,20.37
2023-01-07T12:36:48.481Z,18.40
2023-01-07T12:37:58.897Z,20.45
2023-01-07T12:39:08.323Z,20.75
2023-01-07T12:40:21.912Z,21.70
2023-01-07T12:41:45.685Z,20.42
2023-01-07T12:43:17.856Z,21.53
2023-01-07T12:44:30.595Z,18.77
2023-01-07T12:45:41.758Z,20.08
2023-01-07T12:47:32.180Z,20.02
2023-01-07T12:48:53.603Z,34.55
2023-01-07T12:50:15.265Z,26.48
2023-01-07T12:51:26.698Z,29.70
2023-01-07T12:52:32.238Z,25.45
2023-01-07T12:53:41.993Z,21.67
2023-01-07T12:55:00.419Z,29.50
2023-01-07T12:56:23.881Z,19.97
2023-01-07T12:57:53.120Z,22.13
2023-01-07T12:59:05.391Z,21.23
2023-01-07T13:00:19.476Z,21.92
2023-01-07T13:01:45.294Z,25.62
2023-01-07T13:02:55.667Z,23.35
2023-01-07T13:04:39.091Z,22.40
2023-01-07T13:05:54.512Z,26.23
2023-01-07T13:07:41.911Z,29.58
2023-01-07T13:09:15.472Z,23.33
2023-01-07T13:10:41.530Z,25.90
2023-01-07T13:12:40.847Z,25.77
2023-01-07T13:13:45.902Z,26.42
2023-01-07T13:14:54.792Z,26.80
2023-01-07T13:16:01.982Z,39.83
2023-01-07T13:17:18.519Z,33.40
2023-01-07T13:18:22.179Z,30.10
2023-01-07T13:19:25.633Z,28.02
2023-01-07T13:20:45.391Z,32.25
2023-01-07T13:21:49.666Z,33.70
2023-01-07T13:22:56.508Z,37.93
2023-01-07T13:24:55.612Z,30.37
2023-01-07T13:26:11.499Z,25.90
2023-01-07T13:27:20.315Z,29.87
2023-01-07T13:28:29.375Z,40.28
2023-01-07T13:29:45.787Z,25.88
2023-01-07T13:31:03.837Z,39.63
2023-01-07T13:32:31.455Z,49.00
2023-01-07T13:33:49.604Z,33.72
2023-01-07T13:35:05.687Z,30.40
2023-01-07T13:36:20.514Z,31.63
2023-01-07T13:37:48.665Z,40.53
2023-01-07T13:39:18.936Z,37.17
2023-01-07T13:40:29.105Z,30.40
2023-01-07T13:41:38.154Z,40.47
2023-01-07T13:42:49.314Z,63.75
2023-01-07T13:44:17.090Z,40.47
2023-01-07T13:45:31.997Z,28.02
2023-01-07T13:46:43.692Z,27.48
2023-01-07T13:47:54.030Z,33.45
2023-01-07T13:48:56.947Z,31.67
2023-01-07T13:50:02.631Z,29.03
2023-01-07T13:51:08.818Z,35.75
2023-01-07T13:52:19.010Z,27.65
2023-01-07T13:53:24.989Z,28.60
2023-01-07T13:54:49.257Z,40.60
2023-01-07T13:55:52.414Z,28.55
2023-01-07T13:56:55.128Z,30.12
2023-01-07T13:57:57.945Z,34.30
2023-01-07T13:59:01.201Z,42.15
2023-01-07T14:00:26.485Z,41.20
2023-01-07T14:01:34.968Z,20.40
2023-01-07T14:02:56.517Z,22.33
2023-01-07T14:04:35.986Z,29.27
2023-01-07T14:05:39.972Z,42.65
2023-01-07T14:06:47.104Z,33.42
2023-01-07T14:07:56.810Z,29.77
2023-01-07T14:09:05.126Z,26.42
2023-01-07T14:10:37.699Z,29.67
2023-01-07T14:11:48.223Z,32.15
2023-01-07T14:13:10.113Z,26.20
2023-01-07T14:14:19.428Z,29.50
2023-01-07T14:15:37.214Z,28.65
2023-01-07T14:16:42.603Z,30.15
2023-01-07T14:18:08.421Z,33.50
2023-01-07T14:19:58.227Z,34.50
2023-01-07T14:21:15.644Z,24.20
2023-01-07T14:22:18.436Z,24.17
2023-01-07T14:23:27.462Z,22.55
2023-01-07T14:24:39.889Z,22.80
2023-01-07T14:25:55.513Z,25.13
2023-01-07T14:27:13.130Z,23.15
2023-01-07T14:28:44.014Z,23.58
2023-01-07T14:29:54.298Z,25.33
2023-01-07T14:31:00.017Z,33.22
2023-01-07T14:32:18.758Z,29.00
2023-01-07T14:33:47.284Z,25.12
2023-01-07T14:35:07.801Z,28.95
2023-01-07T14:36:12.119Z,23.23
2023-01-07T14:37:16.807Z,28.20
2023-01-07T14:38:42.368Z,26.83
2023-01-07T14:39:46.876Z,28.00
2023-01-07T14:41:02.116Z,26.02
2023-01-07T14:42:19.872Z,24.02
2023-01-07T14:43:40.936Z,29.85
2023-01-07T14:44:43.761Z,24.05
2023-01-07T14:45:46.423Z,28.55
2023-01-07T14:46:50.773Z,26.83
2023-01-07T14:47:54.624Z,22.23
2023-01-07T14:49:03.043Z,24.12
2023-01-07T14:50:05.970Z,26.00
2023-01-07T14:51:47.829Z,32.27
2023-01-07T14:58:11.415Z,28.12
2023-01-07T15:18:01.368Z,53.45